Saint John, VI

3:33 PM AST on January 18, 2017 (GMT -0400)
Great Cruz Bay, St John | | Change Station

Elev 59 ft 18.33 °N, 64.79 °W | Updated 1 day ago

Scattered Clouds
Scattered Clouds
--
Feels Like --
N
-
Wind Variable Wind from North
Gusts 0.0 mph

Today
High -- | Low -- °F
--% Chance of Precip.
Yesterday
High -- | Low -- °F
Precip. -- in
Pressure 30.01 in
Visibility 10.0 miles
Clouds Scattered Clouds 4100 ft
Scattered Clouds 4800 ft
Dew Point Not available.
Humidity Not available.
Rainfall in
Snow Depth Not available.
6:54 AM 6:05 PM
Waning Gibbous, 61% visible
METAR TIST 181853Z 05011KT 10SM SCT041 SCT048 26/18 A3001 RMK AO2 SLP161 T02610178
Pressure 30.01 in
Visibility 10.0 miles
Clouds Scattered Clouds 4100 ft
Scattered Clouds 4800 ft
Dew Point Not available.
Humidity Not available.
Rainfall in
Snow Depth Not available.
6:54 AM 6:05 PM
Waning Gibbous, 61% visible
METAR TIST 181853Z 05011KT 10SM SCT041 SCT048 26/18 A3001 RMK AO2 SLP161 T02610178

Get Your Daily Forecast Email!

Thanks for signing up!

Be on the lookout for a verification email in your inbox.

You'll start receiving the daily forecast at 8 AM.

×

10-Day Weather Forecast

Almanac

Astronomy

Jan. 18, 2017 Rise Set
Actual Time
Civil Twilight
Nautical Twilight
Astronomical Twilight
Moon
Length of Visible Light
Length of Day
Tomorrow will be .
, % of the Moon is Illuminated

Today's Extremes

State Highs State Lows

Community

WunderPhotos

Upload Photos

1,962,540 photos uploaded!

WunderBlog® & News

Nearby

Air Quality

  Air Quality AQ Index Pollutant
Not available.

Snow Depth

Station Depth Elevation

Earthquake Activity

City Distance Mag. Time & Date
Minimum magnitude displayed is 2.5.

Coastal Water Temperatures

Place Temperature

Stations

Nearby Weather Stations

Station Location Temp. Windchill Dew Point Humidity Wind Precip. Elev Updated Type
                   

Watches & Warnings

There are currently no watches in effect.